createdAt,value
2019-03-25T00:00:50.328Z,423.91
2019-03-25T00:01:50.331Z,424.08
2019-03-25T00:02:50.316Z,425.54
2019-03-25T00:03:50.316Z,424.55
2019-03-25T00:04:50.283Z,423.92
2019-03-25T00:05:50.319Z,423.62
2019-03-25T00:06:50.268Z,424.29
2019-03-25T00:07:50.240Z,423.62
2019-03-25T00:09:03.213Z,425.08
2019-03-25T00:09:51.229Z,424.05
2019-03-25T00:10:50.223Z,424.48
2019-03-25T00:11:50.230Z,424.73
2019-03-25T00:12:50.191Z,424.70
2019-03-25T00:13:50.179Z,425.67
2019-03-25T00:14:50.171Z,423.25
2019-03-25T00:15:50.218Z,425.97
2019-03-25T00:16:50.147Z,424.26
2019-03-25T00:17:50.146Z,424.57
2019-03-25T00:18:50.120Z,424.90
2019-03-25T00:19:50.126Z,423.24
2019-03-25T00:20:50.106Z,423.80
2019-03-25T00:21:50.154Z,424.22
2019-03-25T00:22:50.104Z,424.23
2019-03-25T00:23:50.085Z,424.27
2019-03-25T00:24:50.065Z,424.27
2019-03-25T00:25:50.062Z,425.44
2019-03-25T00:26:50.046Z,424.65
2019-03-25T00:27:50.055Z,424.20
2019-03-25T00:28:50.051Z,425.12
2019-03-25T00:29:50.014Z,425.33
2019-03-25T00:30:50.008Z,423.30
2019-03-25T00:31:50.007Z,424.80
2019-03-25T00:32:50.012Z,423.96
2019-03-25T00:33:49.995Z,424.43
2019-03-25T00:34:49.977Z,424.69
2019-03-25T00:35:49.944Z,425.46
2019-03-25T00:36:49.941Z,425.73
2019-03-25T00:37:49.978Z,424.95
2019-03-25T00:38:49.937Z,424.66
2019-03-25T00:39:49.929Z,426.18
2019-03-25T00:40:49.910Z,424.10
2019-03-25T00:41:49.902Z,424.22
2019-03-25T00:42:49.914Z,424.23
2019-03-25T00:43:49.897Z,423.84
2019-03-25T00:44:49.863Z,424.22
2019-03-25T00:45:49.852Z,426.25
2019-03-25T00:46:49.867Z,424.48
2019-03-25T00:47:49.849Z,425.32
2019-03-25T00:48:49.859Z,425.39
2019-03-25T00:49:49.841Z,424.54
2019-03-25T00:50:49.819Z,423.79
2019-03-25T00:51:49.790Z,424.34
2019-03-25T00:52:49.796Z,424.51
2019-03-25T00:53:49.764Z,424.02
2019-03-25T00:54:50.408Z,425.28
2019-03-25T00:55:49.744Z,425.24
2019-03-25T00:56:49.747Z,422.94
2019-03-25T00:57:49.734Z,424.26
2019-03-25T00:58:49.746Z,424.33
2019-03-25T00:59:49.708Z,423.81
2019-03-25T01:00:49.713Z,424.24
2019-03-25T01:01:49.716Z,425.38
2019-03-25T01:02:49.677Z,424.37
2019-03-25T01:03:49.653Z,425.50
2019-03-25T01:04:49.655Z,424.09
2019-03-25T01:05:49.644Z,424.43
2019-03-25T01:06:49.646Z,423.29
2019-03-25T01:07:49.622Z,424.48
2019-03-25T01:08:49.610Z,423.79
2019-03-25T01:09:49.593Z,423.58
2019-03-25T01:10:49.594Z,424.48
2019-03-25T01:11:49.615Z,423.93
2019-03-25T01:12:49.589Z,422.80
2019-03-25T01:13:49.548Z,424.56
2019-03-25T01:14:49.579Z,423.87
2019-03-25T01:15:49.546Z,423.17
2019-03-25T01:16:49.537Z,424.51
2019-03-25T01:17:49.509Z,423.40
2019-03-25T01:18:49.515Z,425.37
2019-03-25T01:19:49.499Z,423.57
2019-03-25T01:20:49.499Z,423.87
2019-03-25T01:21:49.502Z,423.75
2019-03-25T01:22:49.481Z,423.59
2019-03-25T01:23:49.456Z,424.68
2019-03-25T01:25:00.970Z,425.12
2019-03-25T01:25:50.453Z,423.23
2019-03-25T01:26:49.426Z,423.69
2019-03-25T01:27:49.427Z,423.77
2019-03-25T01:28:49.419Z,423.38
2019-03-25T01:29:49.390Z,423.50
2019-03-25T01:30:49.369Z,423.28
2019-03-25T01:31:49.403Z,424.08
2019-03-25T01:32:49.389Z,423.00
2019-03-25T01:33:49.362Z,423.72
2019-03-25T01:34:49.389Z,423.70
2019-03-25T01:35:49.323Z,423.66
2019-03-25T01:36:49.330Z,424.70
2019-03-25T01:37:49.330Z,424.61
2019-03-25T01:38:49.289Z,424.01
2019-03-25T01:39:49.304Z,423.26
2019-03-25T01:40:49.285Z,423.85
2019-03-25T01:41:49.318Z,423.26
2019-03-25T01:42:49.277Z,423.47
2019-03-25T01:43:49.248Z,423.26
2019-03-25T01:44:49.235Z,422.77
2019-03-25T01:45:49.227Z,423.88
2019-03-25T01:46:49.211Z,423.17
2019-03-25T01:47:49.225Z,423.33
2019-03-25T01:48:49.206Z,423.36
2019-03-25T01:49:49.194Z,422.95
2019-03-25T01:50:49.172Z,422.63
2019-03-25T01:51:49.160Z,422.64
2019-03-25T01:52:49.179Z,423.80
2019-03-25T01:53:49.134Z,423.88
2019-03-25T01:54:49.149Z,423.69
2019-03-25T01:55:49.118Z,423.77
2019-03-25T01:56:49.113Z,423.18
2019-03-25T01:57:49.130Z,423.28
2019-03-25T01:58:49.084Z,423.12
2019-03-25T01:59:49.077Z,423.59
2019-03-25T02:00:49.074Z,424.84
2019-03-25T02:01:49.059Z,423.56
2019-03-25T02:02:49.052Z,424.35
2019-03-25T02:03:49.081Z,423.70
2019-03-25T02:04:49.018Z,422.43
2019-03-25T02:05:49.009Z,423.47
2019-03-25T02:06:49.009Z,422.53
2019-03-25T02:07:48.997Z,423.23
2019-03-25T02:08:49.013Z,423.15
2019-03-25T02:09:48.959Z,422.99
2019-03-25T02:10:48.955Z,422.72
2019-03-25T02:11:48.957Z,423.14
2019-03-25T02:12:48.955Z,423.49
2019-03-25T02:13:48.929Z,424.58
2019-03-25T02:14:48.964Z,422.65
2019-03-25T02:15:48.903Z,423.23
2019-03-25T02:16:48.905Z,422.74
2019-03-25T02:17:48.899Z,423.23
2019-03-25T02:18:48.875Z,422.16
2019-03-25T02:19:48.860Z,422.80
2019-03-25T02:20:48.882Z,423.88
2019-03-25T02:21:48.844Z,423.16
2019-03-25T02:22:48.993Z,422.50
2019-03-25T02:23:48.851Z,423.04
2019-03-25T02:24:48.803Z,423.67
2019-03-25T02:25:48.833Z,424.40
2019-03-25T02:26:48.788Z,423.77
2019-03-25T02:27:48.779Z,423.36
2019-03-25T02:28:48.767Z,422.50
2019-03-25T02:29:48.751Z,423.57
2019-03-25T02:30:48.767Z,422.54
2019-03-25T02:31:48.725Z,424.02
2019-03-25T02:32:48.718Z,423.81
2019-03-25T02:33:48.711Z,424.10
2019-03-25T02:34:48.694Z,423.91
2019-03-25T02:35:48.712Z,422.54
2019-03-25T02:36:48.689Z,422.34
2019-03-25T02:37:48.698Z,424.28
2019-03-25T02:38:48.652Z,422.99
2019-03-25T02:39:48.647Z,423.31
2019-03-25T02:40:48.644Z,422.45
2019-03-25T02:41:48.664Z,424.77
2019-03-25T02:42:48.651Z,423.42
2019-03-25T02:43:48.629Z,423.10
2019-03-25T02:44:48.606Z,423.12
2019-03-25T02:45:48.590Z,423.72
2019-03-25T02:46:48.587Z,423.92
2019-03-25T02:47:48.566Z,423.35
2019-03-25T02:48:48.568Z,423.64
2019-03-25T02:49:48.541Z,423.23
2019-03-25T02:50:48.532Z,423.04
2019-03-25T02:51:48.559Z,422.94
2019-03-25T02:52:48.523Z,422.65
2019-03-25T02:53:48.563Z,422.55
2019-03-25T02:54:48.527Z,423.11
2019-03-25T02:55:48.487Z,424.59
2019-03-25T02:56:48.478Z,423.49
2019-03-25T02:57:48.457Z,423.84
2019-03-25T02:58:48.497Z,424.12
2019-03-25T02:59:48.453Z,423.57
2019-03-25T03:00:48.459Z,423.49
2019-03-25T03:01:48.424Z,425.15
2019-03-25T03:02:48.421Z,423.01
2019-03-25T03:03:48.407Z,422.45
2019-03-25T03:04:48.414Z,423.25
2019-03-25T03:05:48.387Z,422.31
2019-03-25T03:06:48.370Z,421.89
2019-03-25T03:07:48.356Z,423.75
2019-03-25T03:08:48.340Z,422.89
2019-03-25T03:09:48.396Z,422.77
2019-03-25T03:10:48.327Z,424.57
2019-03-25T03:11:48.349Z,422.73
2019-03-25T03:12:48.315Z,424.78
2019-03-25T03:13:48.296Z,424.92
2019-03-25T03:14:48.281Z,423.18
2019-03-25T03:15:48.288Z,424.51
2019-03-25T03:16:48.291Z,423.82
2019-03-25T03:17:48.264Z,424.27
2019-03-25T03:18:48.244Z,424.20
2019-03-25T03:19:48.233Z,424.26
2019-03-25T03:20:48.264Z,425.80
2019-03-25T03:21:48.243Z,422.95
2019-03-25T03:22:48.295Z,423.99
2019-03-25T03:23:48.202Z,423.61
2019-03-25T03:24:48.177Z,423.49
2019-03-25T03:25:57.097Z,422.96
2019-03-25T03:26:49.188Z,423.63
2019-03-25T03:27:48.152Z,424.35
2019-03-25T03:28:48.144Z,426.07
2019-03-25T03:29:48.163Z,423.60
2019-03-25T03:30:48.144Z,423.35
2019-03-25T03:31:48.124Z,423.90
2019-03-25T03:32:48.104Z,424.09
2019-03-25T03:33:48.093Z,423.21
2019-03-25T03:34:48.088Z,424.07
2019-03-25T03:35:48.058Z,422.75
2019-03-25T03:36:48.099Z,423.35
2019-03-25T03:37:48.344Z,424.62
2019-03-25T03:38:48.034Z,424.09
2019-03-25T03:39:48.050Z,425.87
2019-03-25T03:40:48.032Z,423.30
2019-03-25T03:41:48.023Z,425.67
2019-03-25T03:42:47.989Z,424.03
2019-03-25T03:43:48.009Z,423.44
2019-03-25T03:44:47.982Z,424.91
2019-03-25T03:45:48.918Z,424.25
2019-03-25T03:46:48.011Z,423.60
2019-03-25T03:47:47.941Z,423.33
2019-03-25T03:48:47.934Z,424.79
2019-03-25T03:49:48.032Z,423.52
2019-03-25T03:50:48.011Z,424.81
2019-03-25T03:51:47.946Z,422.91
2019-03-25T03:52:47.891Z,423.91
2019-03-25T03:53:47.875Z,424.55
2019-03-25T03:54:47.868Z,425.93
2019-03-25T03:55:47.868Z,425.02
2019-03-25T03:56:47.859Z,423.00
2019-03-25T03:57:47.862Z,423.64
2019-03-25T03:58:47.821Z,425.55
2019-03-25T03:59:47.864Z,423.55
2019-03-25T04:00:47.810Z,423.72
2019-03-25T04:01:47.789Z,425.06
2019-03-25T04:02:47.804Z,423.65
2019-03-25T04:03:47.809Z,426.02
2019-03-25T04:04:47.776Z,424.24
2019-03-25T04:05:47.762Z,422.98
2019-03-25T04:06:47.757Z,423.21
2019-03-25T04:07:47.744Z,422.81
2019-03-25T04:08:48.300Z,423.35
2019-03-25T04:09:48.274Z,424.74
2019-03-25T04:10:47.696Z,426.03
2019-03-25T04:11:47.702Z,425.82
2019-03-25T04:12:47.704Z,423.34
2019-03-25T04:13:47.662Z,423.28
2019-03-25T04:14:47.677Z,424.94
2019-03-25T04:15:47.650Z,422.93
2019-03-25T04:16:47.654Z,423.41
2019-03-25T04:17:47.750Z,424.12
2019-03-25T04:18:49.691Z,425.07
2019-03-25T04:19:47.611Z,423.67
2019-03-25T04:20:47.622Z,424.48
2019-03-25T04:21:47.590Z,426.33
2019-03-25T04:22:47.601Z,425.24
2019-03-25T04:23:47.573Z,426.20
2019-03-25T04:24:47.552Z,426.45
2019-03-25T04:25:47.592Z,424.80
2019-03-25T04:26:47.542Z,424.72
2019-03-25T04:27:47.538Z,426.93
2019-03-25T04:28:48.199Z,424.84
2019-03-25T04:29:47.524Z,424.89
2019-03-25T04:30:47.562Z,425.95
2019-03-25T04:31:47.511Z,425.16
2019-03-25T04:32:47.499Z,425.64
2019-03-25T04:33:47.473Z,425.21
2019-03-25T04:34:47.465Z,425.85
2019-03-25T04:35:47.500Z,424.36
2019-03-25T04:36:47.425Z,426.55
2019-03-25T04:37:47.448Z,424.69
2019-03-25T04:38:47.436Z,425.33
2019-03-25T04:39:47.417Z,426.20
2019-03-25T04:40:47.431Z,426.28
2019-03-25T04:41:47.370Z,425.17
2019-03-25T04:42:47.375Z,424.97
2019-03-25T04:43:47.366Z,427.35
2019-03-25T04:44:47.445Z,427.20
2019-03-25T04:45:47.371Z,423.54
2019-03-25T04:46:47.342Z,426.31
2019-03-25T04:47:47.340Z,424.67
2019-03-25T04:48:47.353Z,427.13
2019-03-25T04:49:47.296Z,427.71
2019-03-25T04:50:47.333Z,425.45
2019-03-25T04:51:47.350Z,425.56
2019-03-25T04:52:47.254Z,424.98
2019-03-25T04:53:47.328Z,425.69
2019-03-25T04:54:47.262Z,424.43
2019-03-25T04:55:47.258Z,426.03
2019-03-25T04:56:47.254Z,425.26
2019-03-25T04:57:47.203Z,426.30
2019-03-25T04:58:47.197Z,424.89
2019-03-25T04:59:47.218Z,424.82
2019-03-25T05:00:47.167Z,427.45
2019-03-25T05:01:47.168Z,425.80
2019-03-25T05:02:47.151Z,425.69
2019-03-25T05:03:47.146Z,424.46
2019-03-25T05:04:47.210Z,425.86
2019-03-25T05:05:47.137Z,425.11
2019-03-25T05:06:47.130Z,426.55
2019-03-25T05:07:47.106Z,426.75
2019-03-25T05:08:47.119Z,425.15
2019-03-25T05:09:47.704Z,426.08
2019-03-25T05:10:47.121Z,425.19
2019-03-25T05:11:47.074Z,425.43
2019-03-25T05:12:47.052Z,425.76
2019-03-25T05:13:47.044Z,425.50
2019-03-25T05:14:47.070Z,426.42
2019-03-25T05:15:47.024Z,425.88
2019-03-25T05:16:47.092Z,424.73
2019-03-25T05:17:47.090Z,424.53
2019-03-25T05:18:47.013Z,425.27
2019-03-25T05:19:46.988Z,426.23
2019-03-25T05:20:46.971Z,426.18
2019-03-25T05:21:46.988Z,425.51
2019-03-25T05:22:46.957Z,426.45
2019-03-25T05:23:46.985Z,427.07
2019-03-25T05:24:46.933Z,426.31
2019-03-25T05:25:46.916Z,425.69
2019-03-25T05:26:51.222Z,427.27
2019-03-25T05:27:46.894Z,425.53
2019-03-25T05:28:47.034Z,424.78
2019-03-25T05:29:46.909Z,426.78
2019-03-25T05:30:46.893Z,425.78
2019-03-25T05:31:46.877Z,425.57
2019-03-25T05:32:46.854Z,426.78
2019-03-25T05:33:46.835Z,424.93
2019-03-25T05:34:47.398Z,425.96
2019-03-25T05:35:47.002Z,426.25
2019-03-25T05:36:46.875Z,425.91
2019-03-25T05:37:46.788Z,424.41
2019-03-25T05:38:46.785Z,426.30
2019-03-25T05:39:46.973Z,427.18
2019-03-25T05:40:46.756Z,429.21
2019-03-25T05:41:46.789Z,427.95
2019-03-25T05:42:46.755Z,430.65
2019-03-25T05:43:46.772Z,429.72
2019-03-25T05:44:46.732Z,427.08
2019-03-25T05:45:46.718Z,427.63
2019-03-25T05:46:46.730Z,429.26
2019-03-25T05:47:46.776Z,427.97
2019-03-25T05:48:46.678Z,427.29
2019-03-25T05:49:46.684Z,427.80
2019-03-25T05:50:46.674Z,428.73
2019-03-25T05:51:47.725Z,427.84
2019-03-25T05:52:47.763Z,429.07
2019-03-25T05:53:47.967Z,428.85
2019-03-25T05:54:46.764Z,428.73
2019-03-25T05:55:46.769Z,426.20
2019-03-25T05:56:46.997Z,427.76
2019-03-25T05:57:46.578Z,430.67
2019-03-25T05:58:46.617Z,427.78
2019-03-25T05:59:46.566Z,425.69
2019-03-25T06:00:46.549Z,426.41
2019-03-25T06:01:50.209Z,426.54
2019-03-25T06:02:55.318Z,430.55
2019-03-25T06:03:50.775Z,424.91
2019-03-25T06:04:49.074Z,426.40
2019-03-25T06:05:48.794Z,426.92
2019-03-25T06:06:46.495Z,427.74
2019-03-25T06:07:46.517Z,428.65
2019-03-25T06:08:46.502Z,424.92
2019-03-25T06:09:46.628Z,425.91
2019-03-25T06:10:46.436Z,426.60
2019-03-25T06:11:46.437Z,428.20
2019-03-25T06:12:46.453Z,426.44
2019-03-25T06:13:46.427Z,426.80
2019-03-25T06:14:46.457Z,425.84
2019-03-25T06:15:46.399Z,426.98
2019-03-25T06:16:46.397Z,426.42
2019-03-25T06:17:46.385Z,427.69
2019-03-25T06:18:46.369Z,427.17
2019-03-25T06:19:46.368Z,425.91
2019-03-25T06:20:48.200Z,427.06
2019-03-25T06:21:46.455Z,427.58
2019-03-25T06:22:46.319Z,427.76
2019-03-25T06:23:46.347Z,425.68
2019-03-25T06:24:46.283Z,428.12
2019-03-25T06:25:46.286Z,428.18
2019-03-25T06:26:46.270Z,429.12
2019-03-25T06:27:46.310Z,426.97
2019-03-25T06:28:46.292Z,425.74
2019-03-25T06:29:46.296Z,426.87
2019-03-25T06:30:46.236Z,427.91
2019-03-25T06:31:46.278Z,425.45
2019-03-25T06:32:46.233Z,432.66
2019-03-25T06:33:46.237Z,429.37
2019-03-25T06:34:46.227Z,428.61
2019-03-25T06:35:46.255Z,427.70
2019-03-25T06:36:46.197Z,428.15
2019-03-25T06:37:46.183Z,432.36
2019-03-25T06:38:46.156Z,428.17
2019-03-25T06:39:46.148Z,429.62
2019-03-25T06:40:46.142Z,429.02
2019-03-25T06:41:46.154Z,428.58
2019-03-25T06:42:46.183Z,430.82
2019-03-25T06:43:46.138Z,426.80
2019-03-25T06:44:46.103Z,431.59
2019-03-25T06:45:46.083Z,428.04
2019-03-25T06:46:46.098Z,426.26
2019-03-25T06:47:46.078Z,427.60
2019-03-25T06:48:46.050Z,426.87
2019-03-25T06:49:46.044Z,426.83
2019-03-25T06:50:46.049Z,428.11
2019-03-25T06:51:46.108Z,426.58
2019-03-25T06:52:46.321Z,426.62
2019-03-25T06:53:46.006Z,427.47
2019-03-25T06:54:45.993Z,426.52
2019-03-25T06:55:46.003Z,425.41
2019-03-25T06:56:45.971Z,427.62
2019-03-25T06:57:45.975Z,426.39
2019-03-25T06:58:45.995Z,426.73
2019-03-25T06:59:45.940Z,425.37
2019-03-25T07:00:45.961Z,425.78
2019-03-25T07:01:45.919Z,427.53
2019-03-25T07:02:45.914Z,433.62
2019-03-25T07:03:45.928Z,428.16
2019-03-25T07:04:45.891Z,427.34
2019-03-25T07:05:45.867Z,426.57
2019-03-25T07:06:45.861Z,428.47
2019-03-25T07:07:45.856Z,427.11
2019-03-25T07:08:45.856Z,426.96
2019-03-25T07:09:45.847Z,432.48
2019-03-25T07:10:45.828Z,428.31
2019-03-25T07:11:45.819Z,427.02
2019-03-25T07:12:45.800Z,428.00
2019-03-25T07:13:45.803Z,426.38
2019-03-25T07:14:45.830Z,428.85
2019-03-25T07:15:45.780Z,426.93
2019-03-25T07:16:45.792Z,427.21
2019-03-25T07:17:45.760Z,427.58
2019-03-25T07:18:45.744Z,427.64
2019-03-25T07:19:45.722Z,426.49
2019-03-25T07:20:45.747Z,428.39
2019-03-25T07:21:45.722Z,429.30
2019-03-25T07:22:45.688Z,429.88
2019-03-25T07:23:45.742Z,429.67
2019-03-25T07:24:45.682Z,428.27
2019-03-25T07:25:45.705Z,426.69
2019-03-25T07:26:45.663Z,429.58
2019-03-25T07:27:45.658Z,428.83
2019-03-25T07:28:45.630Z,428.80
2019-03-25T07:29:45.633Z,427.89
2019-03-25T07:30:45.626Z,428.96
2019-03-25T07:31:45.638Z,427.42
2019-03-25T07:32:45.612Z,425.46
2019-03-25T07:33:45.580Z,427.75
2019-03-25T07:34:45.575Z,428.41
2019-03-25T07:35:45.569Z,426.38
2019-03-25T07:36:45.556Z,430.37
2019-03-25T07:37:45.548Z,428.47
2019-03-25T07:38:45.548Z,428.20
2019-03-25T07:39:45.531Z,428.73
2019-03-25T07:40:45.572Z,428.08
2019-03-25T07:41:45.521Z,428.64
2019-03-25T07:42:45.488Z,427.39
2019-03-25T07:43:45.484Z,426.83
2019-03-25T07:44:45.476Z,428.02
2019-03-25T07:45:45.470Z,428.95
2019-03-25T07:46:45.450Z,425.18
2019-03-25T07:47:45.452Z,426.74
2019-03-25T07:48:45.450Z,427.99
2019-03-25T07:49:45.521Z,425.27
2019-03-25T07:50:45.420Z,431.62
2019-03-25T07:51:45.406Z,429.82
2019-03-25T07:52:45.421Z,427.40
2019-03-25T07:53:45.367Z,426.38
2019-03-25T07:54:45.372Z,426.10
2019-03-25T07:55:45.380Z,425.21
2019-03-25T07:56:45.366Z,430.68
2019-03-25T07:57:48.575Z,427.19
2019-03-25T07:58:45.374Z,430.22
2019-03-25T07:59:45.345Z,427.39
2019-03-25T08:00:45.301Z,430.32
2019-03-25T08:01:45.311Z,428.57
2019-03-25T08:02:45.302Z,427.32
2019-03-25T08:03:45.297Z,426.35
2019-03-25T08:04:45.270Z,429.16
2019-03-25T08:05:45.278Z,427.00
2019-03-25T08:06:45.248Z,425.96
2019-03-25T08:07:45.275Z,427.93
2019-03-25T08:08:45.285Z,425.14
2019-03-25T08:09:45.256Z,427.07
2019-03-25T08:10:45.213Z,427.24
2019-03-25T08:11:45.201Z,426.65
2019-03-25T08:12:45.185Z,429.33
2019-03-25T08:13:45.208Z,429.74
2019-03-25T08:14:45.156Z,426.22
2019-03-25T08:15:45.186Z,431.36
2019-03-25T08:16:46.285Z,428.10
2019-03-25T08:17:45.747Z,427.15
2019-03-25T08:18:45.178Z,427.76
2019-03-25T08:19:45.126Z,427.78
2019-03-25T08:20:45.133Z,427.68
2019-03-25T08:21:45.080Z,427.16
2019-03-25T08:22:45.082Z,427.00
2019-03-25T08:23:45.077Z,427.01
2019-03-25T08:24:45.760Z,426.69
2019-03-25T08:25:47.769Z,430.25
2019-03-25T08:26:45.137Z,430.12
2019-03-25T08:27:45.044Z,427.83
2019-03-25T08:28:45.042Z,429.02
2019-03-25T08:29:45.001Z,429.70
2019-03-25T08:30:45.018Z,426.71
2019-03-25T08:31:46.775Z,425.92
2019-03-25T08:32:44.981Z,428.91
2019-03-25T08:33:44.976Z,427.37
2019-03-25T08:34:44.985Z,425.87
2019-03-25T08:35:46.242Z,427.60
2019-03-25T08:36:45.086Z,428.42
2019-03-25T08:37:44.975Z,428.29
2019-03-25T08:38:44.946Z,426.12
2019-03-25T08:39:44.913Z,426.59
2019-03-25T08:40:44.881Z,426.94
2019-03-25T08:41:44.893Z,426.59
2019-03-25T08:42:44.869Z,425.50
2019-03-25T08:43:45.022Z,426.59
2019-03-25T08:44:44.855Z,430.04
2019-03-25T08:45:44.856Z,427.71
2019-03-25T08:46:44.921Z,427.31
2019-03-25T08:47:44.814Z,428.49
2019-03-25T08:48:44.813Z,426.89
2019-03-25T08:49:44.803Z,428.80
2019-03-25T08:50:44.773Z,427.02
2019-03-25T08:51:44.797Z,428.90
2019-03-25T08:52:44.749Z,426.97
2019-03-25T08:53:44.751Z,426.74
2019-03-25T08:54:44.730Z,429.72
2019-03-25T08:55:44.716Z,426.31
2019-03-25T08:56:44.733Z,425.70
2019-03-25T08:57:44.748Z,430.32
2019-03-25T08:58:44.876Z,428.32
2019-03-25T08:59:44.702Z,425.30
2019-03-25T09:00:46.231Z,427.25
2019-03-25T09:01:44.713Z,426.13
2019-03-25T09:02:44.669Z,425.48
2019-03-25T09:03:45.320Z,427.48
2019-03-25T09:04:44.650Z,429.45
2019-03-25T09:05:44.769Z,428.89
2019-03-25T09:06:44.625Z,426.96
2019-03-25T09:07:44.634Z,426.85
2019-03-25T09:08:48.688Z,426.10
2019-03-25T09:09:44.583Z,426.55
2019-03-25T09:10:44.560Z,428.38
2019-03-25T09:11:44.558Z,427.11
2019-03-25T09:12:44.583Z,426.46
2019-03-25T09:13:44.569Z,426.71
2019-03-25T09:14:44.538Z,426.26
2019-03-25T09:15:44.522Z,427.43
2019-03-25T09:16:44.504Z,428.45
2019-03-25T09:17:44.645Z,425.02
2019-03-25T09:18:44.481Z,426.27
2019-03-25T09:19:44.480Z,427.32
2019-03-25T09:20:45.834Z,428.39
2019-03-25T09:21:44.448Z,427.16
2019-03-25T09:22:53.333Z,428.64
2019-03-25T09:23:45.256Z,427.59
2019-03-25T09:24:44.461Z,431.19
2019-03-25T09:25:44.391Z,430.32
2019-03-25T09:26:44.378Z,425.95
2019-03-25T09:27:44.411Z,426.74
2019-03-25T09:28:44.375Z,427.20
2019-03-25T09:29:44.355Z,426.08
2019-03-25T09:30:44.385Z,425.50
2019-03-25T09:31:44.337Z,427.60
2019-03-25T09:32:44.399Z,426.56
2019-03-25T09:33:44.307Z,427.51
2019-03-25T09:34:44.297Z,426.97
2019-03-25T09:35:44.352Z,427.69
2019-03-25T09:36:44.322Z,426.51
2019-03-25T09:37:44.288Z,425.32
2019-03-25T09:38:44.264Z,429.02
2019-03-25T09:39:44.252Z,429.62
2019-03-25T09:40:44.238Z,428.71
2019-03-25T09:41:44.241Z,426.72
2019-03-25T09:42:44.226Z,429.21
2019-03-25T09:43:44.208Z,427.23
2019-03-25T09:44:44.223Z,428.34
2019-03-25T09:45:44.197Z,430.08
2019-03-25T09:46:44.178Z,426.88
2019-03-25T09:47:44.189Z,427.10
2019-03-25T09:48:44.148Z,428.21
2019-03-25T09:49:44.185Z,427.11
2019-03-25T09:50:44.146Z,428.02
2019-03-25T09:51:44.125Z,428.06
2019-03-25T09:52:44.156Z,426.63
2019-03-25T09:53:44.133Z,426.92
2019-03-25T09:54:44.110Z,428.58
2019-03-25T09:55:44.090Z,426.25
2019-03-25T09:56:44.090Z,426.48
2019-03-25T09:57:44.063Z,427.12
2019-03-25T09:58:44.049Z,428.48
2019-03-25T09:59:44.054Z,426.08
2019-03-25T10:00:44.042Z,428.48
2019-03-25T10:01:44.040Z,431.36
2019-03-25T10:02:44.006Z,428.57
2019-03-25T10:03:44.006Z,429.17
2019-03-25T10:04:44.061Z,427.31
2019-03-25T10:05:43.981Z,427.68
2019-03-25T10:06:44.016Z,428.08
2019-03-25T10:07:43.966Z,430.01
2019-03-25T10:08:43.948Z,428.39
2019-03-25T10:09:43.948Z,428.29
2019-03-25T10:10:43.932Z,427.59
2019-03-25T10:11:43.910Z,429.47
2019-03-25T10:12:43.924Z,428.81
2019-03-25T10:13:43.892Z,427.78
2019-03-25T10:14:43.894Z,429.50
2019-03-25T10:15:43.873Z,430.66
2019-03-25T10:16:43.863Z,432.29
2019-03-25T10:17:43.891Z,427.40
2019-03-25T10:18:43.858Z,428.45
2019-03-25T10:19:43.858Z,429.96
2019-03-25T10:20:43.857Z,428.40
2019-03-25T10:21:43.839Z,429.16
2019-03-25T10:22:43.820Z,427.54
2019-03-25T10:23:43.923Z,428.33
2019-03-25T10:24:43.781Z,427.35
2019-03-25T10:25:43.792Z,428.15
2019-03-25T10:26:43.784Z,428.82
2019-03-25T10:27:43.756Z,429.44
2019-03-25T10:28:48.778Z,429.99
2019-03-25T10:29:44.752Z,427.27
2019-03-25T10:30:43.752Z,429.33
2019-03-25T10:31:43.728Z,429.50
2019-03-25T10:32:43.721Z,428.32
2019-03-25T10:33:43.714Z,426.90
2019-03-25T10:34:43.672Z,426.93
2019-03-25T10:35:43.697Z,427.73
2019-03-25T10:36:43.675Z,428.73
2019-03-25T10:37:43.649Z,426.73
2019-03-25T10:38:43.650Z,427.57
2019-03-25T10:39:43.628Z,428.60
2019-03-25T10:40:43.620Z,428.60
2019-03-25T10:41:43.608Z,428.26
2019-03-25T10:42:43.613Z,427.70
2019-03-25T10:43:43.700Z,427.86
2019-03-25T10:44:43.575Z,427.96
2019-03-25T10:45:43.594Z,428.07
2019-03-25T10:46:43.600Z,429.63
2019-03-25T10:47:43.557Z,428.62
2019-03-25T10:48:43.554Z,428.30
2019-03-25T10:49:43.540Z,430.14
2019-03-25T10:50:43.537Z,424.64
2019-03-25T10:51:43.497Z,429.55
2019-03-25T10:52:43.492Z,424.20
2019-03-25T10:53:43.486Z,431.19
2019-03-25T10:54:43.605Z,425.39
2019-03-25T10:55:43.470Z,427.03
2019-03-25T10:56:49.086Z,429.29
2019-03-25T10:57:44.445Z,427.51
2019-03-25T10:58:43.429Z,425.28
2019-03-25T10:59:43.454Z,428.64
2019-03-25T11:00:43.418Z,428.80
2019-03-25T11:01:43.427Z,422.56
2019-03-25T11:02:43.415Z,428.16
2019-03-25T11:03:43.378Z,428.17
2019-03-25T11:04:43.411Z,429.77
2019-03-25T11:05:43.393Z,427.50
2019-03-25T11:06:43.364Z,428.07
2019-03-25T11:08:43.315Z,426.48
2019-03-25T11:09:43.315Z,427.83
2019-03-25T11:10:43.344Z,423.33
2019-03-25T11:11:43.288Z,427.25
2019-03-25T11:12:43.295Z,428.79
2019-03-25T11:13:43.280Z,427.86
2019-03-25T11:14:43.265Z,427.85
2019-03-25T11:15:43.273Z,429.91
2019-03-25T11:16:43.259Z,427.25
2019-03-25T11:17:43.239Z,424.69
2019-03-25T11:18:43.222Z,430.71
2019-03-25T11:19:43.243Z,424.26
2019-03-25T11:20:43.247Z,429.87
2019-03-25T11:21:43.234Z,427.81
2019-03-25T11:22:43.181Z,429.85
2019-03-25T11:23:43.187Z,429.80
2019-03-25T11:24:43.168Z,429.74
2019-03-25T11:25:43.159Z,430.22
2019-03-25T11:26:43.165Z,427.15
2019-03-25T11:27:43.157Z,431.55
2019-03-25T11:28:43.116Z,427.46
2019-03-25T11:29:43.142Z,427.38
2019-03-25T11:30:43.123Z,427.92
2019-03-25T11:31:43.069Z,428.04
2019-03-25T11:32:43.066Z,428.24
2019-03-25T11:33:43.054Z,428.18
2019-03-25T11:34:43.047Z,429.09
2019-03-25T11:35:43.039Z,427.80
2019-03-25T11:36:43.049Z,432.09
2019-03-25T11:37:43.027Z,429.02
2019-03-25T11:38:43.012Z,428.46
2019-03-25T11:39:43.035Z,430.85
2019-03-25T11:40:43.021Z,428.78
2019-03-25T11:41:42.983Z,433.58
2019-03-25T11:42:42.975Z,428.87
2019-03-25T11:43:42.956Z,428.36
2019-03-25T11:44:42.939Z,428.61
2019-03-25T11:45:42.923Z,428.39
2019-03-25T11:46:42.935Z,428.48
2019-03-25T11:47:42.932Z,430.04
2019-03-25T11:48:42.904Z,427.14
2019-03-25T11:49:44.503Z,429.03
2019-03-25T11:50:42.864Z,428.39
2019-03-25T11:51:42.890Z,430.58
2019-03-25T11:52:42.873Z,428.73
2019-03-25T11:53:42.911Z,429.38
2019-03-25T11:54:42.875Z,427.48
2019-03-25T11:55:42.831Z,429.11
2019-03-25T11:56:42.829Z,428.22
2019-03-25T11:57:42.844Z,421.97
2019-03-25T11:58:42.808Z,431.57
2019-03-25T11:59:42.800Z,428.72
2019-03-25T12:00:42.787Z,430.50
2019-03-25T12:01:42.769Z,428.60
2019-03-25T12:02:42.787Z,429.71
2019-03-25T12:03:42.767Z,427.92
2019-03-25T12:04:42.731Z,430.67
2019-03-25T12:05:42.725Z,428.06
2019-03-25T12:06:42.725Z,429.67
2019-03-25T12:07:42.691Z,424.82
2019-03-25T12:08:42.706Z,428.85
2019-03-25T12:09:42.694Z,429.06
2019-03-25T12:10:42.666Z,423.70
2019-03-25T12:11:42.637Z,429.51
2019-03-25T12:12:42.645Z,417.78
2019-03-25T12:13:42.627Z,425.47
2019-03-25T12:14:42.626Z,427.99
2019-03-25T12:15:42.617Z,426.62
2019-03-25T12:16:42.617Z,427.60
2019-03-25T12:17:42.591Z,429.38
2019-03-25T12:18:42.569Z,426.94
2019-03-25T12:19:42.612Z,427.06
2019-03-25T12:20:42.560Z,427.35
2019-03-25T12:21:42.547Z,427.69
2019-03-25T12:22:42.547Z,421.52
2019-03-25T12:23:42.525Z,428.22
2019-03-25T12:24:42.522Z,430.18
2019-03-25T12:25:42.541Z,427.12
2019-03-25T12:26:42.508Z,428.13
2019-03-25T12:27:42.491Z,426.33
2019-03-25T12:28:42.498Z,430.35
2019-03-25T12:29:42.691Z,428.76